.
WxDataArchive / Data Records for 2008-11-20
2008-11-19 November 2008 2008-11-21

Data Records for Thursday, 20 November 2008

Time	Temp	Chill	HIndex	Humid	Dewpt	 Wind 	HiWind	WindDir	Rain 	Barom 
-----	----	-----	------	-----	-----	------	------	-------	-----	----- 
00:00	38.5	38.5	38.5	70	29.6	2	6	315	0.00	29.940 
00:05	38.5	38.5	38.5	70	29.6	1	3	270	0.00	29.941 
00:10	38.3	38.3	38.3	69	29.0	1	3	270	0.00	29.942 
00:15	38.2	38.2	38.2	69	28.9	2	4	315	0.00	29.945 
00:20	38.2	38.2	38.2	69	28.9	1	4	292	0.00	29.947 
00:25	38.2	38.2	38.2	69	28.9	1	4	292	0.00	29.948 
00:30	38.0	38.0	38.0	69	28.7	1	4	338	0.00	29.950 
00:35	38.0	38.0	38.0	68	28.4	2	5	315	0.00	29.951 
00:40	38.0	38.0	38.0	68	28.4	1	4	338	0.00	29.952 
00:45	37.9	37.9	37.9	68	28.3	1	4	270	0.00	29.952 
00:50	37.9	37.9	37.9	68	28.3	2	6	315	0.00	29.952 
00:55	37.9	37.9	37.9	68	28.3	1	5	338	0.00	29.952 
01:00	37.8	37.8	37.8	68	28.2	1	3	315	0.00	29.953 
01:05	37.8	37.8	37.8	68	28.2	1	5	315	0.00	29.952 
01:10	37.8	37.8	37.8	68	28.2	1	2	292	0.00	29.955 
01:15	37.6	37.6	37.6	67	27.7	1	6	338	0.00	29.954 
01:20	37.6	37.6	37.6	67	27.7	1	3	315	0.00	29.957 
01:25	37.6	37.6	37.6	66	27.3	2	6	315	0.00	29.956 
01:30	37.6	37.6	37.6	66	27.3	1	4	292	0.00	29.957 
01:35	37.5	37.5	37.5	66	27.2	1	4	338	0.00	29.959 
01:40	37.5	37.5	37.5	66	27.2	1	3	338	0.00	29.962 
01:45	37.3	37.3	37.3	65	26.6	1	6	338	0.00	29.965 
01:50	37.5	37.5	37.5	65	26.8	2	4	315	0.00	29.963 
01:55	37.3	37.3	37.3	64	26.3	2	6	292	0.00	29.967 
02:00	37.3	37.3	37.3	64	26.3	2	6	315	0.00	29.967 
02:05	37.3	37.3	37.3	64	26.3	2	5	292	0.00	29.967 
02:10	37.2	37.2	37.2	64	26.2	1	5	315	0.00	29.968 
02:15	37.2	37.2	37.2	64	26.2	1	5	292	0.00	29.969 
02:20	37.0	37.0	37.0	64	26.0	1	5	270	0.00	29.969 
02:25	37.0	37.0	37.0	63	25.6	1	6	315	0.00	29.971 
02:30	37.0	37.0	37.0	64	26.0	1	2	292	0.00	29.973 
02:35	36.9	36.9	36.9	63	25.5	1	2	315	0.00	29.976 
02:40	36.9	36.9	36.9	63	25.5	1	3	338	0.00	29.978 
02:45	36.9	36.9	36.9	63	25.5	1	4	338	0.00	29.979 
02:50	36.9	36.9	36.9	63	25.5	1	3	315	0.00	29.979 
02:55	36.9	36.9	36.9	63	25.5	1	4	315	0.00	29.982 
03:00	36.9	36.9	36.9	62	25.1	1	3	338	0.00	29.983 
03:05	36.8	36.8	36.8	62	25.0	1	3	338	0.00	29.981 
03:10	36.8	36.8	36.8	62	25.0	1	4	270	0.00	29.983 
03:15	36.8	36.8	36.8	62	25.0	1	4	292	0.00	29.989 
03:20	36.8	36.8	36.8	62	25.0	1	4	338	0.00	29.992 
03:25	36.8	36.8	36.8	62	25.0	1	4	315	0.00	29.993 
03:30	36.6	36.6	36.6	62	24.8	1	3	315	0.00	29.994 
03:35	36.6	36.6	36.6	61	24.4	1	3	315	0.00	29.993 
03:40	36.6	36.6	36.6	61	24.4	1	4	292	0.00	29.994 
03:45	36.6	36.6	36.6	60	24.0	3	7	315	0.00	29.994 
03:50	36.6	36.6	36.6	59	23.6	2	6	270	0.00	29.995 
03:55	36.5	36.5	36.5	57	22.7	2	6	292	0.00	29.997 
04:00	36.5	36.5	36.5	57	22.7	2	6	338	0.00	29.997 
04:05	36.3	36.3	36.3	56	22.1	2	13	315	0.00	29.999 
04:10	36.3	36.3	36.3	56	22.1	2	6	338	0.00	29.998 
04:15	36.3	36.3	36.3	56	22.1	2	7	315	0.00	30.001 
04:20	36.2	36.2	36.2	57	22.5	1	6	315	0.00	30.002 
04:25	36.0	36.0	36.0	57	22.3	1	4	270	0.00	30.005 
04:30	36.0	36.0	36.0	58	22.7	1	5	338	0.00	30.009 
04:35	35.9	35.9	35.9	58	22.6	1	3	338	0.00	30.011 
04:40	35.9	35.9	35.9	58	22.6	1	4	338	0.00	30.014 
04:45	35.9	35.9	35.9	58	22.6	1	3	315	0.00	30.015 
04:50	35.8	35.8	35.8	59	22.9	0	3	0	0.00	30.015 
04:55	35.8	35.8	35.8	59	22.9	1	3	270	0.00	30.017 
05:00	35.8	35.8	35.8	59	22.9	0	3	270	0.00	30.019 
05:05	35.8	35.8	35.8	59	22.9	1	2	270	0.00	30.023 
05:10	35.6	35.6	35.6	59	22.7	1	3	0	0.00	30.023 
05:15	35.6	35.6	35.6	60	23.1	1	3	338	0.00	30.024 
05:20	35.6	35.6	35.6	60	23.1	1	3	292	0.00	30.027 
05:25	35.5	35.5	35.5	60	23.0	0	2	292	0.00	30.029 
05:30	35.5	35.5	35.5	61	23.4	0	3	292	0.00	30.029 
05:35	35.5	35.5	35.5	61	23.4	1	3	248	0.00	30.031 
05:40	35.5	35.5	35.5	61	23.4	0	2	270	0.00	30.032 
05:45	35.3	35.3	35.3	62	23.6	0	1	270	0.00	30.035 
05:50	35.3	35.3	35.3	62	23.6	0	3	338	0.00	30.037 
05:55	35.3	35.3	35.3	62	23.6	0	2	338	0.00	30.039 
06:00	35.2	35.2	35.2	62	23.5	0	1	338	0.00	30.041 
06:05	35.2	35.2	35.2	62	23.5	0	1	338	0.00	30.043 
06:10	35.2	35.2	35.2	62	23.5	1	2	315	0.00	30.045 
06:15	35.2	35.2	35.2	62	23.5	0	2	315	0.00	30.047 
06:20	35.2	35.2	35.2	62	23.5	0	1	315	0.00	30.048 
06:25	35.0	35.0	35.0	62	23.3	1	3	292	0.00	30.050 
06:30	35.0	35.0	35.0	63	23.7	0	1	292	0.00	30.054 
06:35	35.0	35.0	35.0	63	23.7	0	1	292	0.00	30.055 
06:40	35.0	35.0	35.0	63	23.7	1	2	292	0.00	30.055 
06:45	35.0	35.0	35.0	63	23.7	1	6	292	0.00	30.060 
06:50	35.0	35.0	35.0	63	23.7	1	4	0	0.00	30.062 
06:55	34.9	34.9	34.9	64	24.0	1	5	292	0.00	30.063 
07:00	34.9	34.9	34.9	65	24.3	1	3	338	0.00	30.063 
07:05	34.7	34.7	34.7	65	24.2	0	2	315	0.00	30.062 
07:10	34.7	34.7	34.7	66	24.5	0	1	315	0.00	30.064 
07:15	34.6	34.6	34.6	67	24.8	0	1	315	0.00	30.066 
07:20	34.6	34.6	34.6	68	25.1	0	1	315	0.00	30.066 
07:25	34.4	34.4	34.4	69	25.3	0	1	315	0.00	30.067 
07:30	34.4	34.4	34.4	68	24.9	0	2	315	0.00	30.072 
07:35	34.4	34.4	34.4	68	24.9	0	2	315	0.00	30.074 
07:40	34.4	34.4	34.4	69	25.3	1	3	292	0.00	30.074 
07:45	34.4	34.4	34.4	69	25.3	1	3	292	0.00	30.077 
07:50	34.4	34.4	34.4	68	24.9	1	5	292	0.00	30.076 
07:55	34.3	34.3	34.3	68	24.9	0	2	315	0.00	30.078 
08:00	34.3	34.3	34.3	69	25.2	0	2	315	0.00	30.077 
08:05	34.3	34.3	34.3	69	25.2	1	3	0	0.00	30.078 
08:10	34.3	34.3	34.3	69	25.2	1	5	315	0.00	30.079 
08:15	34.3	34.3	34.3	69	25.2	1	3	315	0.00	30.081 
08:20	34.3	34.3	34.3	69	25.2	2	6	270	0.00	30.084 
08:25	34.4	34.4	34.4	69	25.3	1	3	338	0.00	30.087 
08:30	34.4	34.4	34.4	68	24.9	2	6	292	0.00	30.091 
08:35	34.4	34.4	34.4	69	25.3	2	4	315	0.00	30.092 
08:40	34.4	34.4	34.4	68	24.9	1	4	315	0.00	30.094 
08:45	34.4	34.4	34.4	68	24.9	1	4	270	0.00	30.095 
08:50	34.4	34.4	34.4	68	24.9	1	2	270	0.00	30.095 
08:55	34.4	34.4	34.4	68	24.9	1	5	315	0.00	30.096 
09:00	34.4	34.4	34.4	68	24.9	1	5	270	0.00	30.100 
09:05	34.4	34.4	34.4	68	24.9	1	4	292	0.00	30.102 
09:10	34.3	34.3	34.3	68	24.9	2	5	315	0.00	30.102 
09:15	34.3	34.3	34.3	69	25.2	1	4	292	0.00	30.101 
09:20	34.3	34.3	34.3	69	25.2	1	4	338	0.00	30.103 
09:25	34.4	34.4	34.4	69	25.3	1	3	338	0.00	30.107 
09:30	34.3	34.3	34.3	69	25.2	2	5	338	0.00	30.105 
09:35	34.4	34.4	34.4	69	25.3	1	5	270	0.00	30.101 
09:40	34.4	34.4	34.4	69	25.3	1	3	315	0.00	30.101 
09:45	34.4	34.4	34.4	69	25.3	1	3	315	0.00	30.103 
09:50	34.4	34.4	34.4	69	25.3	1	4	315	0.00	30.106 
09:55	34.6	34.6	34.6	69	25.5	1	4	338	0.00	30.107 
10:00	34.6	34.6	34.6	69	25.5	1	4	338	0.00	30.110 
10:05	34.6	34.6	34.6	68	25.1	2	5	315	0.00	30.108 
10:10	34.7	34.7	34.7	68	25.2	1	6	338	0.00	30.108 
10:15	34.7	34.7	34.7	68	25.2	1	4	338	0.00	30.108 
10:20	34.9	34.9	34.9	68	25.4	1	3	338	0.00	30.107 
10:25	35.2	35.2	35.2	68	25.7	1	4	315	0.00	30.108 
10:30	35.2	35.2	35.2	65	24.6	1	4	315	0.00	30.106 
10:35	35.3	35.3	35.3	64	24.4	1	5	0	0.00	30.106 
10:40	35.5	35.5	35.5	64	24.5	1	5	338	0.00	30.108 
10:45	35.8	35.8	35.8	62	24.1	2	5	315	0.00	30.108 
10:50	36.0	36.0	36.0	62	24.3	1	4	292	0.00	30.109 
10:55	36.5	36.5	36.5	62	24.7	1	4	270	0.00	30.109 
11:00	36.8	36.8	36.8	59	23.8	2	7	292	0.00	30.106 
11:05	36.9	36.9	36.9	61	24.7	1	3	338	0.00	30.107 
11:10	37.2	37.2	37.2	60	24.6	1	3	270	0.00	30.106 
11:15	37.2	37.2	37.2	61	25.0	1	4	270	0.00	30.107 
11:20	36.9	36.9	36.9	60	24.3	1	3	315	0.00	30.107 
11:25	36.8	36.8	36.8	58	23.4	2	5	270	0.00	30.106 
11:30	36.5	36.5	36.5	58	23.1	2	5	315	0.00	30.107 
11:35	36.6	36.6	36.6	60	24.0	1	4	0	0.00	30.105 
11:40	36.8	36.8	36.8	60	24.2	1	3	0	0.00	30.104 
11:45	36.9	36.9	36.9	59	23.9	1	4	315	0.00	30.104 
11:50	37.0	37.0	37.0	56	22.8	1	3	315	0.00	30.099 
11:55	37.3	37.3	37.3	58	23.9	1	2	270	0.00	30.093 
12:00	37.2	37.2	37.2	57	23.4	2	5	270	0.00	30.092 
12:05	36.9	36.9	36.9	57	23.1	1	4	270	0.00	30.094 
12:10	36.9	36.9	36.9	59	23.9	2	4	270	0.00	30.093 
12:15	36.8	36.8	36.8	60	24.2	2	6	270	0.00	30.092 
12:20	36.9	36.9	36.9	62	25.1	2	5	315	0.00	30.092 
12:25	36.8	36.8	36.8	62	25.0	2	4	270	0.00	30.091 
12:30	36.5	36.5	36.5	61	24.3	2	7	270	0.00	30.088 
12:35	36.6	36.6	36.6	62	24.8	2	5	270	0.00	30.090 
12:40	36.8	36.8	36.8	63	25.4	1	5	292	0.00	30.090 
12:45	36.6	36.6	36.6	62	24.8	2	5	315	0.00	30.090 
12:50	36.3	36.3	36.3	58	23.0	3	7	292	0.00	30.090 
12:55	36.2	36.2	36.2	59	23.3	3	6	292	0.00	30.091 
13:00	36.0	36.0	36.0	60	23.5	2	5	0	0.00	30.091 
13:05	35.9	35.9	35.9	61	23.8	2	7	315	0.00	30.093 
13:10	35.8	35.8	35.8	62	24.1	2	6	315	0.00	30.092 
13:15	35.6	35.6	35.6	64	24.6	2	4	292	0.00	30.091 
13:20	35.5	35.5	35.5	65	24.9	2	6	315	0.00	30.091 
13:25	35.5	35.5	35.5	64	24.5	3	9	292	0.00	30.093 
13:30	35.3	35.3	35.3	65	24.7	3	5	338	0.00	30.093 
13:35	35.0	35.0	35.0	67	25.2	2	5	292	0.00	30.092 
13:40	35.2	35.2	35.2	66	25.0	2	10	315	0.00	30.091 
13:45	35.2	35.2	35.2	65	24.6	2	5	292	0.00	30.091 
13:50	35.2	35.2	35.2	64	24.3	3	10	315	0.00	30.093 
13:55	35.2	35.2	35.2	63	23.9	2	9	292	0.00	30.093 
14:00	35.3	35.3	35.3	64	24.4	2	4	292	0.00	30.092 
14:05	35.5	35.5	35.5	65	24.9	2	6	292	0.00	30.090 
14:10	35.5	35.5	35.5	65	24.9	2	5	270	0.00	30.089 
14:15	35.2	35.2	35.2	66	25.0	2	5	292	0.00	30.089 
14:20	34.9	34.9	34.9	68	25.4	2	5	0	0.00	30.086 
14:25	35.0	35.0	35.0	68	25.5	2	7	315	0.00	30.085 
14:30	34.6	34.6	34.6	67	24.8	3	6	292	0.00	30.084 
14:35	34.7	34.7	34.7	68	25.2	2	5	270	0.00	30.083 
14:40	34.9	34.9	34.9	68	25.4	1	3	338	0.00	30.084 
14:45	34.9	34.9	34.9	66	24.7	2	5	338	0.00	30.085 
14:50	34.6	34.6	34.6	66	24.4	3	9	315	0.00	30.083 
14:55	34.3	34.3	34.3	67	24.5	2	5	270	0.00	30.086 
15:00	34.3	34.3	34.3	68	24.9	1	7	338	0.00	30.087 
15:05	34.3	34.3	34.3	67	24.5	2	7	270	0.00	30.089 
15:10	34.3	34.3	34.3	65	23.8	3	8	292	0.00	30.093 
15:15	34.3	34.3	34.3	66	24.1	2	6	292	0.00	30.094 
15:20	34.1	34.1	34.1	66	23.9	3	6	338	0.00	30.095 
15:25	34.0	34.0	34.0	65	23.5	3	9	315	0.00	30.096 
15:30	33.7	33.7	33.7	66	23.6	3	9	338	0.00	30.098 
15:35	33.7	33.7	33.7	68	24.3	2	11	315	0.00	30.098 
15:40	33.5	33.5	33.5	68	24.1	2	6	270	0.00	30.097 
15:45	33.5	33.5	33.5	69	24.4	2	5	270	0.00	30.098 
15:50	33.4	33.4	33.4	68	24.0	3	10	292	0.00	30.099 
15:55	33.4	33.4	33.4	67	23.6	2	6	315	0.00	30.101 
16:00	33.5	33.5	33.5	68	24.1	2	5	270	0.00	30.102 
16:05	33.5	33.5	33.5	68	24.1	2	6	292	0.00	30.101 
16:10	33.5	33.5	33.5	67	23.7	2	6	292	0.00	30.103 
16:15	33.5	33.5	33.5	65	23.0	2	10	315	0.00	30.107 
16:20	33.4	33.4	33.4	65	22.9	2	7	338	0.00	30.111 
16:25	33.2	33.2	33.2	65	22.7	2	6	270	0.00	30.113 
16:30	33.1	33.1	33.1	65	22.6	2	6	270	0.00	30.112 
16:35	32.9	32.9	32.9	66	22.8	1	3	315	0.00	30.113 
16:40	32.8	32.8	32.8	65	22.3	3	12	315	0.00	30.111 
16:45	32.7	32.7	32.7	66	22.6	2	7	315	0.00	30.112 
16:50	32.7	32.7	32.7	67	23.0	1	6	270	0.00	30.113 
16:55	32.5	32.5	32.5	68	23.1	2	5	270	0.00	30.114 
17:00	32.5	32.5	32.5	69	23.5	2	6	292	0.00	30.116 
17:05	32.4	32.4	32.4	69	23.4	2	5	315	0.00	30.120 
17:10	32.2	32.2	32.2	69	23.2	2	9	338	0.00	30.119 
17:15	32.2	32.2	32.2	69	23.2	1	5	338	0.00	30.122 
17:20	32.1	32.1	32.1	70	23.4	1	3	338	0.00	30.123 
17:25	31.9	31.9	31.9	70	23.2	2	7	292	0.00	30.125 
17:30	31.9	31.9	31.9	70	23.2	1	5	315	0.00	30.124 
17:35	31.8	31.8	31.8	70	23.2	1	7	338	0.00	30.124 
17:40	31.8	31.8	31.8	71	23.5	1	3	315	0.00	30.122 
17:45	31.8	31.8	31.8	71	23.5	1	5	315	0.00	30.125 
17:50	31.8	31.8	31.8	71	23.5	2	4	292	0.00	30.128 
17:55	31.8	31.8	31.8	70	23.2	1	6	292	0.00	30.129 
18:00	31.8	31.8	31.8	71	23.5	1	4	315	0.00	30.130 
18:05	31.6	31.6	31.6	71	23.3	1	4	338	0.00	30.130 
18:10	31.5	31.5	31.5	72	23.5	1	3	270	0.00	30.131 
18:15	31.3	31.3	31.3	73	23.7	1	3	315	0.00	30.131 
18:20	31.3	31.3	31.3	73	23.7	1	3	338	0.00	30.131 
18:25	31.2	31.2	31.2	73	23.6	1	5	338	0.00	30.131 
18:30	31.2	31.2	31.2	73	23.6	1	3	338	0.00	30.132 
18:35	31.2	31.2	31.2	73	23.6	2	6	338	0.00	30.133 
18:40	31.2	31.2	31.2	74	23.9	1	3	315	0.00	30.138 
18:45	31.0	31.0	31.0	75	24.0	2	5	338	0.00	30.138 
18:50	30.7	30.7	30.7	76	24.0	1	3	338	0.00	30.139 
18:55	30.6	30.6	30.6	76	24.0	1	3	338	0.00	30.143 
19:00	30.6	30.6	30.6	77	24.3	0	2	338	0.00	30.144 
19:05	30.4	30.4	30.4	79	24.7	1	5	338	0.00	30.148 
19:10	29.8	29.8	29.8	82	25.0	2	6	292	0.00	30.148 
19:15	29.1	29.1	29.1	85	25.2	2	6	338	0.00	30.150 
19:20	28.8	28.8	28.8	87	25.4	1	3	292	0.00	30.151 
19:25	28.8	28.8	28.8	87	25.4	1	5	315	0.00	30.151 
19:30	28.8	28.8	28.8	88	25.7	1	4	338	0.00	30.151 
19:35	28.8	28.8	28.8	88	25.7	1	4	315	0.00	30.151 
19:40	28.8	28.8	28.8	87	25.4	1	3	270	0.00	30.151 
19:45	28.8	28.8	28.8	87	25.4	1	5	270	0.00	30.152 
19:50	28.8	28.8	28.8	87	25.4	1	3	315	0.00	30.152 
19:55	28.7	28.7	28.7	86	25.1	1	4	338	0.00	30.155 
20:00	28.5	28.5	28.5	85	24.6	2	6	315	0.00	30.156 
20:05	28.5	28.5	28.5	84	24.3	2	5	315	0.00	30.158 
20:10	28.5	28.5	28.5	84	24.3	1	3	338	0.00	30.157 
20:15	28.5	28.5	28.5	83	24.0	1	3	315	0.00	30.156 
20:20	28.5	28.5	28.5	83	24.0	1	3	315	0.00	30.158 
20:25	28.7	28.7	28.7	82	23.9	1	4	315	0.00	30.160 
20:30	28.7	28.7	28.7	82	23.9	1	5	292	0.00	30.162 
20:35	28.7	28.7	28.7	81	23.6	1	3	338	0.00	30.162 
20:40	28.7	28.7	28.7	81	23.6	1	4	338	0.00	30.164 
20:45	28.7	28.7	28.7	81	23.6	1	5	270	0.00	30.166 
20:50	28.7	28.7	28.7	81	23.6	1	4	315	0.00	30.166 
20:55	28.7	28.7	28.7	81	23.6	1	4	270	0.00	30.166 
21:00	28.7	28.7	28.7	81	23.6	1	4	338	0.00	30.167 
21:05	28.7	28.7	28.7	81	23.6	1	3	270	0.00	30.166 
21:10	28.5	28.5	28.5	81	23.4	1	4	315	0.00	30.166 
21:15	28.4	28.4	28.4	81	23.3	1	3	338	0.00	30.169 
21:20	28.4	28.4	28.4	81	23.3	1	5	315	0.00	30.169 
21:25	28.4	28.4	28.4	80	23.0	1	6	315	0.00	30.169 
21:30	28.4	28.4	28.4	79	22.7	1	5	338	0.00	30.169 
21:35	28.2	28.2	28.2	78	22.2	1	4	315	0.00	30.167 
21:40	28.2	28.2	28.2	78	22.2	1	4	338	0.00	30.167 
21:45	28.2	28.2	28.2	77	21.9	1	5	338	0.00	30.169 
21:50	28.2	28.2	28.2	76	21.6	1	4	270	0.00	30.175 
21:55	28.2	28.2	28.2	73	20.7	2	6	292	0.00	30.179 
22:00	28.2	28.2	28.2	71	20.0	2	7	292	0.00	30.181 
22:05	28.2	28.2	28.2	69	19.4	2	4	270	0.00	30.180 
22:10	28.1	28.1	28.1	67	18.6	2	9	315	0.00	30.181 
22:15	28.1	28.1	28.1	67	18.6	1	4	338	0.00	30.182 
22:20	27.9	27.9	27.9	66	18.0	2	5	315	0.00	30.182 
22:25	27.9	27.9	27.9	66	18.0	1	3	270	0.00	30.183 
22:30	27.8	27.8	27.8	64	17.2	1	5	270	0.00	30.189 
22:35	27.8	27.8	27.8	63	16.9	1	4	292	0.00	30.186 
22:40	27.6	27.6	27.6	63	16.7	0	3	292	0.00	30.185 
22:45	27.6	27.6	27.6	63	16.7	1	4	270	0.00	30.189 
22:50	27.5	27.5	27.5	62	16.2	0	2	338	0.00	30.193 
22:55	27.5	27.5	27.5	62	16.2	1	4	338	0.00	30.195 
23:00	27.5	27.5	27.5	62	16.2	1	3	338	0.00	30.196 
23:05	27.2	27.2	27.2	61	15.6	1	4	338	0.00	30.196 
23:10	27.0	27.0	27.0	61	15.4	1	7	338	0.00	30.196 
23:15	26.9	26.9	26.9	60	14.9	1	4	315	0.00	30.196 
23:20	26.7	26.7	26.7	60	14.7	1	3	270	0.00	30.196 
23:25	26.6	26.6	26.6	60	14.6	1	6	270	0.00	30.197 
23:30	26.6	26.6	26.6	59	14.2	1	4	338	0.00	30.197 
23:35	26.4	26.4	26.4	59	14.0	1	3	338	0.00	30.198 
23:40	26.3	26.3	26.3	60	14.3	1	2	338	0.00	30.199 
23:45	26.3	26.3	26.3	60	14.3	1	4	270	0.00	30.201 
23:50	26.3	26.3	26.3	60	14.3	1	5	315	0.00	30.202 
23:55	26.4	26.4	26.4	60	14.4	1	4	270	0.00	30.202 

CoCoRaHS
IN-AL-39
A2 Web Hosting
Creative Commons License
GoDaddy
Look for:

loaded 2017-10-17 00:27:48 • last modified 2010-11-18 10:43:29
Privacy PolicyDisclaimer
• wx.awcolley.com is powered by PmWiki v.2002016 •
• all content (unless otherwise noted) © 2017 A W Colley